Princeton, Canada
Current Conditions -  °F | °C
As of 5:00 AM on Monday 22 Dec 2014 (Local Time) from CYYF Reporting Station
Few Clouds Few Clouds  
Wind Chill: 30°   Ceiling: Unl
Heat Index: 34°   Visibility: 15mi
Dew Point: 30°   Wind: 5mph
Humidity: 87%   Direction: NA
Pressure: 30.05"   Gusts: NA
Location:  49.46°N, 120.5°W
Report Text: CYYF 221300Z VRB04KT 15SM FEW150 01/M01 A3005 RMK ACC2 PRESRR SLP187
Loading
Personal Weather Stations






























Interactive Weather Map New forecast layout! Learn more

10-Day Weather Forecast

Advertisements
Track Severe Weather on mobile